Pagina principală
METAR-TAF:

METAR-TAF

Aeroporturi :

Puerto Peñasco, Mexic

Latitudine: 31-21-07N, longitudine: 113-18-20W, elevație: 22 m

Observații meteo curente

Raportul a fost făcut în urmă cu 38 de minute, la 23:40 UTC
Vânt 12 kt de la Vest/Sud-vest
Temperatură 38°C
Umiditate 21%
Presiune 1009 hPa
Vizibilitate: 16.1 km
Nori puțini la o înălțime de 20000 picior

METAR: MMPE 182340Z 24012KT 10SM FEW200 38/12 A2979 RMK 8/009 HZY

Ora: 17:18 (00:18 UTC)


TAF: lipsă

Observații și prognoze meteo pentru peste 4.000 de aeroporturi (rapoarte METAR și TAF).

Stațiile disponibile sunt reprezentate pe hartă prin puncte galbene și roșii.

Țineți indicatorul mouse-ului pe punctul dorit pentru a vedea denumirea stației.

Apoi, faceți clic pentru a vedea observațiile și prognozele meteorologice.

Pentru a schimba harta: Pentru mărire, faceți clic pe butoanele verzi cu cruce neagră; pentru micșorare, pe butonul verde cu o liniuță; pentru hărți învecinate, pe săgețile verzi.


METAR-TAF: